sensor_id;sensor_type;location;lat;lon;timestamp;pressure;altitude;pressure_sealevel;temperature;humidity
63399;BME280;49533;-34.520;150.798;2023-01-28T00:00:37;100358.97;;;25.50;68.48
63399;BME280;49533;-34.520;150.798;2023-01-28T00:03:04;100354.22;;;25.51;68.59
63399;BME280;49533;-34.520;150.798;2023-01-28T00:05:31;100347.47;;;25.48;68.34
63399;BME280;49533;-34.520;150.798;2023-01-28T00:07:58;100351.41;;;25.54;68.31
63399;BME280;49533;-34.520;150.798;2023-01-28T00:10:26;100342.03;;;25.72;67.75
63399;BME280;49533;-34.520;150.798;2023-01-28T00:12:53;100344.28;;;25.84;67.39
63399;BME280;49533;-34.520;150.798;2023-01-28T00:15:20;100342.16;;;25.99;66.60
63399;BME280;49533;-34.520;150.798;2023-01-28T00:17:47;100339.19;;;26.13;66.73
63399;BME280;49533;-34.520;150.798;2023-01-28T00:20:15;100344.22;;;26.26;66.57
63399;BME280;49533;-34.520;150.798;2023-01-28T00:22:47;100338.53;;;26.33;66.54
63399;BME280;49533;-34.520;150.798;2023-01-28T00:25:15;100335.25;;;26.38;66.04
63399;BME280;49533;-34.520;150.798;2023-01-28T00:27:42;100332.75;;;26.47;66.17
63399;BME280;49533;-34.520;150.798;2023-01-28T00:30:10;100325.84;;;26.59;65.41
63399;BME280;49533;-34.520;150.798;2023-01-28T00:32:37;100327.78;;;26.62;65.39
63399;BME280;49533;-34.520;150.798;2023-01-28T00:35:05;100328.97;;;26.61;65.55
63399;BME280;49533;-34.520;150.798;2023-01-28T00:37:32;100324.81;;;26.73;65.37
63399;BME280;49533;-34.520;150.798;2023-01-28T00:39:59;100322.13;;;26.69;65.33
63399;BME280;49533;-34.520;150.798;2023-01-28T00:42:27;100314.09;;;26.71;64.69
63399;BME280;49533;-34.520;150.798;2023-01-28T00:44:54;100306.78;;;26.81;64.62
63399;BME280;49533;-34.520;150.798;2023-01-28T00:47:21;100305.50;;;26.85;64.84
63399;BME280;49533;-34.520;150.798;2023-01-28T00:49:48;100289.56;;;26.86;64.83
63399;BME280;49533;-34.520;150.798;2023-01-28T00:52:15;100300.59;;;26.93;64.40
63399;BME280;49533;-34.520;150.798;2023-01-28T00:54:42;100286.84;;;27.06;64.55
63399;BME280;49533;-34.520;150.798;2023-01-28T00:57:09;100281.75;;;27.01;64.85
63399;BME280;49533;-34.520;150.798;2023-01-28T00:59:37;100286.94;;;26.99;65.75
63399;BME280;49533;-34.520;150.798;2023-01-28T01:02:04;100284.81;;;27.06;65.49
63399;BME280;49533;-34.520;150.798;2023-01-28T01:04:38;100280.09;;;27.03;65.60
63399;BME280;49533;-34.520;150.798;2023-01-28T01:07:05;100270.47;;;27.08;65.69
63399;BME280;49533;-34.520;150.798;2023-01-28T01:12:41;100261.66;;;27.09;66.20
63399;BME280;49533;-34.520;150.798;2023-01-28T01:15:09;100257.22;;;27.12;65.78
63399;BME280;49533;-34.520;150.798;2023-01-28T01:17:37;100256.03;;;27.13;66.20
63399;BME280;49533;-34.520;150.798;2023-01-28T01:20:06;100252.50;;;27.09;65.65
63399;BME280;49533;-34.520;150.798;2023-01-28T01:22:36;100246.94;;;27.09;65.63
63399;BME280;49533;-34.520;150.798;2023-01-28T01:25:04;100236.56;;;27.09;65.94
63399;BME280;49533;-34.520;150.798;2023-01-28T01:27:32;100231.25;;;27.19;65.47
63399;BME280;49533;-34.520;150.798;2023-01-28T01:29:59;100229.03;;;27.30;65.22
63399;BME280;49533;-34.520;150.798;2023-01-28T01:32:30;100223.03;;;27.31;65.73
63399;BME280;49533;-34.520;150.798;2023-01-28T01:34:58;100212.59;;;27.36;65.74
63399;BME280;49533;-34.520;150.798;2023-01-28T01:37:25;100202.50;;;27.42;66.00
63399;BME280;49533;-34.520;150.798;2023-01-28T01:39:52;100201.28;;;27.43;65.61
63399;BME280;49533;-34.520;150.798;2023-01-28T01:42:20;100197.69;;;27.42;65.61
63399;BME280;49533;-34.520;150.798;2023-01-28T01:44:57;100190.91;;;27.43;65.45
63399;BME280;49533;-34.520;150.798;2023-01-28T01:47:34;100188.91;;;27.44;64.92
63399;BME280;49533;-34.520;150.798;2023-01-28T01:50:10;100193.34;;;27.41;64.95
63399;BME280;49533;-34.520;150.798;2023-01-28T01:52:41;100188.03;;;27.47;65.23
63399;BME280;49533;-34.520;150.798;2023-01-28T01:55:13;100188.41;;;27.49;64.64
63399;BME280;49533;-34.520;150.798;2023-01-28T01:57:43;100179.66;;;27.47;64.81
63399;BME280;49533;-34.520;150.798;2023-01-28T02:00:13;100178.28;;;27.55;64.95
63399;BME280;49533;-34.520;150.798;2023-01-28T02:02:43;100178.38;;;27.51;64.84
63399;BME280;49533;-34.520;150.798;2023-01-28T02:05:13;100167.66;;;27.50;64.74
63399;BME280;49533;-34.520;150.798;2023-01-28T02:10:58;100159.91;;;27.58;64.59
63399;BME280;49533;-34.520;150.798;2023-01-28T02:13:31;100154.94;;;27.65;64.76
63399;BME280;49533;-34.520;150.798;2023-01-28T02:16:02;100164.31;;;27.75;64.71
63399;BME280;49533;-34.520;150.798;2023-01-28T02:18:30;100166.75;;;27.73;64.64
63399;BME280;49533;-34.520;150.798;2023-01-28T02:21:25;100165.09;;;27.75;64.65
63399;BME280;49533;-34.520;150.798;2023-01-28T02:27:12;100165.53;;;27.74;64.44
63399;BME280;49533;-34.520;150.798;2023-01-28T02:29:55;100164.66;;;27.77;64.60
63399;BME280;49533;-34.520;150.798;2023-01-28T02:32:35;100146.66;;;27.82;64.68
63399;BME280;49533;-34.520;150.798;2023-01-28T02:35:17;100158.63;;;27.79;64.49
63399;BME280;49533;-34.520;150.798;2023-01-28T02:38:04;100143.88;;;27.78;64.64
63399;BME280;49533;-34.520;150.798;2023-01-28T02:40:38;100139.84;;;27.83;64.93
63399;BME280;49533;-34.520;150.798;2023-01-28T02:43:32;100141.88;;;27.79;65.02
63399;BME280;49533;-34.520;150.798;2023-01-28T02:46:11;100139.84;;;27.83;65.16
63399;BME280;49533;-34.520;150.798;2023-01-28T02:48:51;100140.63;;;27.83;65.25
63399;BME280;49533;-34.520;150.798;2023-01-28T02:51:31;100130.59;;;27.86;65.29
63399;BME280;49533;-34.520;150.798;2023-01-28T02:54:19;100126.06;;;27.92;65.19
63399;BME280;49533;-34.520;150.798;2023-01-28T02:56:57;100127.25;;;27.91;64.95
63399;BME280;49533;-34.520;150.798;2023-01-28T02:59:49;100130.50;;;27.89;65.17
63399;BME280;49533;-34.520;150.798;2023-01-28T03:02:34;100128.56;;;27.86;65.33
63399;BME280;49533;-34.520;150.798;2023-01-28T03:05:25;100139.31;;;27.88;65.64
63399;BME280;49533;-34.520;150.798;2023-01-28T03:07:53;100129.44;;;27.83;65.53
63399;BME280;49533;-34.520;150.798;2023-01-28T03:10:22;100114.72;;;27.83;65.58
63399;BME280;49533;-34.520;150.798;2023-01-28T03:12:55;100126.28;;;27.81;65.29
63399;BME280;49533;-34.520;150.798;2023-01-28T03:15:38;100122.66;;;27.84;65.19
63399;BME280;49533;-34.520;150.798;2023-01-28T03:18:27;100111.63;;;27.77;65.00
63399;BME280;49533;-34.520;150.798;2023-01-28T03:21:14;100114.78;;;27.79;65.26
63399;BME280;49533;-34.520;150.798;2023-01-28T03:24:02;100105.09;;;27.84;65.27
63399;BME280;49533;-34.520;150.798;2023-01-28T03:26:53;100106.69;;;27.85;65.57
63399;BME280;49533;-34.520;150.798;2023-01-28T03:29:36;100106.75;;;27.81;65.15
63399;BME280;49533;-34.520;150.798;2023-01-28T03:32:16;100104.69;;;27.85;65.62
63399;BME280;49533;-34.520;150.798;2023-01-28T03:34:57;100087.50;;;27.87;65.44
63399;BME280;49533;-34.520;150.798;2023-01-28T03:37:36;100097.78;;;27.90;65.63
63399;BME280;49533;-34.520;150.798;2023-01-28T03:40:06;100109.75;;;27.90;65.43
63399;BME280;49533;-34.520;150.798;2023-01-28T03:42:33;100103.38;;;27.90;65.72
63399;BME280;49533;-34.520;150.798;2023-01-28T03:45:01;100087.41;;;27.90;65.49
63399;BME280;49533;-34.520;150.798;2023-01-28T03:47:31;100092.22;;;27.90;65.20
63399;BME280;49533;-34.520;150.798;2023-01-28T03:49:59;100096.19;;;27.89;65.62
63399;BME280;49533;-34.520;150.798;2023-01-28T03:52:29;100072.31;;;27.88;65.44
63399;BME280;49533;-34.520;150.798;2023-01-28T03:54:57;100073.19;;;27.85;65.49
63399;BME280;49533;-34.520;150.798;2023-01-28T03:57:27;100079.19;;;27.83;65.25
63399;BME280;49533;-34.520;150.798;2023-01-28T03:59:56;100072.75;;;27.86;65.18
63399;BME280;49533;-34.520;150.798;2023-01-28T04:02:23;100075.47;;;27.90;65.61
63399;BME280;49533;-34.520;150.798;2023-01-28T04:04:52;100073.88;;;27.89;65.58
63399;BME280;49533;-34.520;150.798;2023-01-28T04:07:19;100072.31;;;27.88;65.82
63399;BME280;49533;-34.520;150.798;2023-01-28T04:09:46;100061.56;;;27.86;65.76
63399;BME280;49533;-34.520;150.798;2023-01-28T04:12:13;100070.41;;;27.85;65.52
63399;BME280;49533;-34.520;150.798;2023-01-28T04:14:40;100062.38;;;27.87;65.48
63399;BME280;49533;-34.520;150.798;2023-01-28T04:17:08;100069.53;;;27.88;65.41
63399;BME280;49533;-34.520;150.798;2023-01-28T04:19:36;100063.06;;;27.91;65.21
63399;BME280;49533;-34.520;150.798;2023-01-28T04:22:05;100047.91;;;27.92;65.29
63399;BME280;49533;-34.520;150.798;2023-01-28T04:24:33;100050.69;;;27.92;65.29
63399;BME280;49533;-34.520;150.798;2023-01-28T04:27:00;100045.53;;;27.90;65.67
63399;BME280;49533;-34.520;150.798;2023-01-28T04:29:28;100035.50;;;27.93;65.52
63399;BME280;49533;-34.520;150.798;2023-01-28T04:31:55;100066.91;;;27.97;66.00
63399;BME280;49533;-34.520;150.798;2023-01-28T04:34:22;100064.78;;;28.01;66.05
63399;BME280;49533;-34.520;150.798;2023-01-28T04:36:49;100061.31;;;27.97;65.67
63399;BME280;49533;-34.520;150.798;2023-01-28T04:39:16;100047.78;;;27.95;65.84
63399;BME280;49533;-34.520;150.798;2023-01-28T04:41:43;100040.19;;;27.96;65.89
63399;BME280;49533;-34.520;150.798;2023-01-28T04:44:10;100034.78;;;27.89;66.48
63399;BME280;49533;-34.520;150.798;2023-01-28T04:46:38;100034.53;;;27.83;66.45
63399;BME280;49533;-34.520;150.798;2023-01-28T04:49:05;100031.22;;;27.88;66.16
63399;BME280;49533;-34.520;150.798;2023-01-28T04:51:33;100025.56;;;27.92;66.58
63399;BME280;49533;-34.520;150.798;2023-01-28T04:54:00;100031.81;;;27.96;66.20
63399;BME280;49533;-34.520;150.798;2023-01-28T04:56:27;100028.25;;;27.95;66.44
63399;BME280;49533;-34.520;150.798;2023-01-28T04:58:54;100022.56;;;27.99;66.86
63399;BME280;49533;-34.520;150.798;2023-01-28T05:01:22;100025.69;;;28.01;66.86
63399;BME280;49533;-34.520;150.798;2023-01-28T05:03:50;100014.88;;;28.03;66.96
63399;BME280;49533;-34.520;150.798;2023-01-28T05:06:17;100012.97;;;28.00;66.59
63399;BME280;49533;-34.520;150.798;2023-01-28T05:08:44;100012.28;;;27.96;66.67
63399;BME280;49533;-34.520;150.798;2023-01-28T05:11:12;100009.94;;;27.94;66.49
63399;BME280;49533;-34.520;150.798;2023-01-28T05:13:39;100017.19;;;27.92;66.53
63399;BME280;49533;-34.520;150.798;2023-01-28T05:16:06;100008.81;;;27.92;66.19
63399;BME280;49533;-34.520;150.798;2023-01-28T05:18:33;100007.94;;;27.95;66.29
63399;BME280;49533;-34.520;150.798;2023-01-28T05:21:00;100005.13;;;27.95;66.05
63399;BME280;49533;-34.520;150.798;2023-01-28T05:23:27;100005.66;;;27.90;66.10
63399;BME280;49533;-34.520;150.798;2023-01-28T05:25:55;100002.94;;;27.86;65.92
63399;BME280;49533;-34.520;150.798;2023-01-28T05:28:22;99998.69;;;27.82;65.94
63399;BME280;49533;-34.520;150.798;2023-01-28T05:30:49;100010.53;;;27.86;65.84
63399;BME280;49533;-34.520;150.798;2023-01-28T05:33:17;100003.41;;;27.85;65.83
63399;BME280;49533;-34.520;150.798;2023-01-28T05:35:44;99988.03;;;27.77;65.53
63399;BME280;49533;-34.520;150.798;2023-01-28T05:38:11;99976.00;;;27.80;65.71
63399;BME280;49533;-34.520;150.798;2023-01-28T05:40:38;99971.97;;;27.81;65.56
63399;BME280;49533;-34.520;150.798;2023-01-28T05:43:05;99991.50;;;27.81;65.57
63399;BME280;49533;-34.520;150.798;2023-01-28T05:45:33;99984.38;;;27.80;65.75
63399;BME280;49533;-34.520;150.798;2023-01-28T05:48:00;99983.13;;;27.81;65.77
63399;BME280;49533;-34.520;150.798;2023-01-28T05:50:27;99978.00;;;27.79;65.71
63399;BME280;49533;-34.520;150.798;2023-01-28T05:52:54;99973.63;;;27.78;65.88
63399;BME280;49533;-34.520;150.798;2023-01-28T05:55:21;99968.03;;;27.78;66.12
63399;BME280;49533;-34.520;150.798;2023-01-28T05:57:49;99984.38;;;27.80;66.21
63399;BME280;49533;-34.520;150.798;2023-01-28T06:00:17;99977.72;;;27.73;66.16
63399;BME280;49533;-34.520;150.798;2023-01-28T06:02:44;99964.56;;;27.74;66.10
63399;BME280;49533;-34.520;150.798;2023-01-28T06:05:15;99972.25;;;27.70;66.32
63399;BME280;49533;-34.520;150.798;2023-01-28T06:07:45;99965.88;;;27.69;66.36
63399;BME280;49533;-34.520;150.798;2023-01-28T06:10:13;99972.00;;;27.64;66.20
63399;BME280;49533;-34.520;150.798;2023-01-28T06:12:42;99969.97;;;27.65;66.36
63399;BME280;49533;-34.520;150.798;2023-01-28T06:15:10;99975.56;;;27.65;66.37
63399;BME280;49533;-34.520;150.798;2023-01-28T06:17:37;99976.34;;;27.65;66.44
63399;BME280;49533;-34.520;150.798;2023-01-28T06:20:04;99971.53;;;27.66;66.86
63399;BME280;49533;-34.520;150.798;2023-01-28T06:22:31;99979.59;;;27.64;66.91
63399;BME280;49533;-34.520;150.798;2023-01-28T06:24:58;99964.22;;;27.56;67.09
63399;BME280;49533;-34.520;150.798;2023-01-28T06:27:25;99960.66;;;27.55;67.32
63399;BME280;49533;-34.520;150.798;2023-01-28T06:29:53;99963.91;;;27.53;67.39
63399;BME280;49533;-34.520;150.798;2023-01-28T06:32:20;99975.75;;;27.58;67.10
63399;BME280;49533;-34.520;150.798;2023-01-28T06:34:47;99958.41;;;27.50;67.69
63399;BME280;49533;-34.520;150.798;2023-01-28T06:37:15;99964.69;;;27.54;67.24
63399;BME280;49533;-34.520;150.798;2023-01-28T06:39:42;99954.03;;;27.49;67.34
63399;BME280;49533;-34.520;150.798;2023-01-28T06:42:09;99960.06;;;27.47;67.51
63399;BME280;49533;-34.520;150.798;2023-01-28T06:44:36;99963.28;;;27.46;67.77
63399;BME280;49533;-34.520;150.798;2023-01-28T06:47:05;99956.47;;;27.47;67.76
63399;BME280;49533;-34.520;150.798;2023-01-28T06:49:41;99970.84;;;27.45;68.19
63399;BME280;49533;-34.520;150.798;2023-01-28T06:52:08;99953.69;;;27.47;67.85
63399;BME280;49533;-34.520;150.798;2023-01-28T06:54:35;99964.16;;;27.43;68.27
63399;BME280;49533;-34.520;150.798;2023-01-28T06:57:02;99961.03;;;27.41;68.21
63399;BME280;49533;-34.520;150.798;2023-01-28T06:59:30;99965.38;;;27.42;68.19
63399;BME280;49533;-34.520;150.798;2023-01-28T07:01:58;99967.47;;;27.38;67.82
63399;BME280;49533;-34.520;150.798;2023-01-28T07:04:25;99980.28;;;27.35;68.43
63399;BME280;49533;-34.520;150.798;2023-01-28T07:06:52;99981.06;;;27.36;68.09
63399;BME280;49533;-34.520;150.798;2023-01-28T07:09:19;99992.31;;;27.32;68.56
63399;BME280;49533;-34.520;150.798;2023-01-28T07:11:46;99990.75;;;27.31;68.35
63399;BME280;49533;-34.520;150.798;2023-01-28T07:14:13;99996.38;;;27.27;68.63
63399;BME280;49533;-34.520;150.798;2023-01-28T07:16:40;99990.81;;;27.27;68.63
63399;BME280;49533;-34.520;150.798;2023-01-28T07:19:07;99991.63;;;27.28;68.65
63399;BME280;49533;-34.520;150.798;2023-01-28T07:21:34;99992.03;;;27.26;68.86
63399;BME280;49533;-34.520;150.798;2023-01-28T07:24:01;99995.25;;;27.25;68.91
63399;BME280;49533;-34.520;150.798;2023-01-28T07:26:30;99999.63;;;27.26;68.76
63399;BME280;49533;-34.520;150.798;2023-01-28T07:28:58;100013.22;;;27.24;69.31
63399;BME280;49533;-34.520;150.798;2023-01-28T07:31:25;100006.50;;;27.21;69.29
63399;BME280;49533;-34.520;150.798;2023-01-28T07:33:53;100012.56;;;27.16;68.95
63399;BME280;49533;-34.520;150.798;2023-01-28T07:36:20;100017.38;;;27.16;69.40
63399;BME280;49533;-34.520;150.798;2023-01-28T07:38:47;100025.66;;;27.19;69.26
63399;BME280;49533;-34.520;150.798;2023-01-28T07:41:14;100022.16;;;27.15;69.51
63399;BME280;49533;-34.520;150.798;2023-01-28T07:43:41;100038.19;;;27.11;69.61
63399;BME280;49533;-34.520;150.798;2023-01-28T07:46:08;100047.81;;;27.06;69.99
63399;BME280;49533;-34.520;150.798;2023-01-28T07:48:36;100039.56;;;27.03;69.77
63399;BME280;49533;-34.520;150.798;2023-01-28T07:51:03;100040.06;;;26.98;70.19
63399;BME280;49533;-34.520;150.798;2023-01-28T07:53:30;100048.06;;;26.96;69.95
63399;BME280;49533;-34.520;150.798;2023-01-28T07:55:59;100052.41;;;26.97;70.25
63399;BME280;49533;-34.520;150.798;2023-01-28T07:58:27;100054.50;;;26.93;70.37
63399;BME280;49533;-34.520;150.798;2023-01-28T08:00:57;100049.28;;;26.95;70.21
63399;BME280;49533;-34.520;150.798;2023-01-28T08:03:24;100048.16;;;26.92;70.55
63399;BME280;49533;-34.520;150.798;2023-01-28T08:05:54;100051.78;;;26.89;70.69
63399;BME280;49533;-34.520;150.798;2023-01-28T08:08:23;100066.16;;;26.87;70.70
63399;BME280;49533;-34.520;150.798;2023-01-28T08:10:51;100062.66;;;26.83;70.79
63399;BME280;49533;-34.520;150.798;2023-01-28T08:13:18;100079.22;;;26.91;70.49
63399;BME280;49533;-34.520;150.798;2023-01-28T08:15:46;100071.78;;;27.04;70.17
63399;BME280;49533;-34.520;150.798;2023-01-28T08:18:14;100066.06;;;27.11;69.35
63399;BME280;49533;-34.520;150.798;2023-01-28T08:20:43;100070.34;;;27.16;69.16
63399;BME280;49533;-34.520;150.798;2023-01-28T08:23:14;100081.81;;;27.21;68.98
63399;BME280;49533;-34.520;150.798;2023-01-28T08:25:42;100081.03;;;27.21;68.96
63399;BME280;49533;-34.520;150.798;2023-01-28T08:28:10;100087.75;;;27.23;68.82
63399;BME280;49533;-34.520;150.798;2023-01-28T08:30:37;100086.50;;;27.24;68.57
63399;BME280;49533;-34.520;150.798;2023-01-28T08:33:05;100083.34;;;27.22;68.46
63399;BME280;49533;-34.520;150.798;2023-01-28T08:35:34;100088.94;;;27.22;68.52
63399;BME280;49533;-34.520;150.798;2023-01-28T08:38:03;100092.94;;;27.21;68.99
63399;BME280;49533;-34.520;150.798;2023-01-28T08:40:30;100089.75;;;27.23;68.62
63399;BME280;49533;-34.520;150.798;2023-01-28T08:42:57;100093.75;;;27.22;68.91
63399;BME280;49533;-34.520;150.798;2023-01-28T08:45:26;100101.69;;;27.23;68.65
63399;BME280;49533;-34.520;150.798;2023-01-28T08:47:57;100096.88;;;27.24;68.73
63399;BME280;49533;-34.520;150.798;2023-01-28T08:50:26;100100.91;;;27.23;68.43
63399;BME280;49533;-34.520;150.798;2023-01-28T08:52:57;100109.69;;;27.21;68.39
63399;BME280;49533;-34.520;150.798;2023-01-28T08:55:26;100116.50;;;27.20;68.20
63399;BME280;49533;-34.520;150.798;2023-01-28T08:57:53;100114.50;;;27.17;68.65
63399;BME280;49533;-34.520;150.798;2023-01-28T09:00:21;100117.31;;;27.17;68.34
63399;BME280;49533;-34.520;150.798;2023-01-28T09:02:52;100126.06;;;27.19;68.42
63399;BME280;49533;-34.520;150.798;2023-01-28T09:05:20;100126.91;;;27.16;68.52
63399;BME280;49533;-34.520;150.798;2023-01-28T09:07:47;100133.69;;;27.15;68.24
63399;BME280;49533;-34.520;150.798;2023-01-28T09:10:16;100126.53;;;27.14;68.39
63399;BME280;49533;-34.520;150.798;2023-01-28T09:12:45;100130.91;;;27.15;68.33
63399;BME280;49533;-34.520;150.798;2023-01-28T09:15:13;100132.13;;;27.14;68.33
63399;BME280;49533;-34.520;150.798;2023-01-28T09:17:41;100133.69;;;27.15;68.12
63399;BME280;49533;-34.520;150.798;2023-01-28T09:20:08;100140.47;;;27.14;68.31
63399;BME280;49533;-34.520;150.798;2023-01-28T09:22:36;100144.50;;;27.13;68.25
63399;BME280;49533;-34.520;150.798;2023-01-28T09:25:04;100145.69;;;27.12;68.15
63399;BME280;49533;-34.520;150.798;2023-01-28T09:27:31;100146.56;;;27.09;68.03
63399;BME280;49533;-34.520;150.798;2023-01-28T09:29:58;100147.34;;;27.09;68.09
63399;BME280;49533;-34.520;150.798;2023-01-28T09:32:25;100154.06;;;27.12;68.00
63399;BME280;49533;-34.520;150.798;2023-01-28T09:34:52;100158.50;;;27.09;67.97
63399;BME280;49533;-34.520;150.798;2023-01-28T09:37:19;100157.34;;;27.07;68.32
63399;BME280;49533;-34.520;150.798;2023-01-28T09:39:46;100168.50;;;27.07;68.07
63399;BME280;49533;-34.520;150.798;2023-01-28T09:42:38;100168.94;;;27.05;68.32
63399;BME280;49533;-34.520;150.798;2023-01-28T09:45:16;100171.28;;;27.07;67.93
63399;BME280;49533;-34.520;150.798;2023-01-28T09:47:50;100158.56;;;27.06;67.92
63399;BME280;49533;-34.520;150.798;2023-01-28T09:50:33;100169.72;;;27.06;67.90
63399;BME280;49533;-34.520;150.798;2023-01-28T09:53:12;100172.59;;;27.02;67.86
63399;BME280;49533;-34.520;150.798;2023-01-28T09:55:45;100174.56;;;27.02;67.84
63399;BME280;49533;-34.520;150.798;2023-01-28T09:58:15;100178.59;;;27.01;68.18
63399;BME280;49533;-34.520;150.798;2023-01-28T10:01:01;100176.59;;;27.01;67.87
63399;BME280;49533;-34.520;150.798;2023-01-28T10:03:50;100173.78;;;27.01;68.25
63399;BME280;49533;-34.520;150.798;2023-01-28T10:09:34;100190.59;;;26.98;68.41
63399;BME280;49533;-34.520;150.798;2023-01-28T10:12:13;100186.22;;;26.97;68.18
63399;BME280;49533;-34.520;150.798;2023-01-28T10:15:03;100186.66;;;26.95;68.02
63399;BME280;49533;-34.520;150.798;2023-01-28T10:17:41;100193.88;;;26.93;68.38
63399;BME280;49533;-34.520;150.798;2023-01-28T10:20:26;100208.59;;;26.93;68.22
63399;BME280;49533;-34.520;150.798;2023-01-28T10:23:12;100209.03;;;26.92;68.40
63399;BME280;49533;-34.520;150.798;2023-01-28T10:25:43;100203.53;;;26.88;68.64
63399;BME280;49533;-34.520;150.798;2023-01-28T10:28:20;100209.88;;;26.88;68.29
63399;BME280;49533;-34.520;150.798;2023-01-28T10:30:50;100212.66;;;26.88;68.38
63399;BME280;49533;-34.520;150.798;2023-01-28T10:33:23;100215.91;;;26.87;68.60
63399;BME280;49533;-34.520;150.798;2023-01-28T10:35:55;100209.97;;;26.85;68.46
63399;BME280;49533;-34.520;150.798;2023-01-28T10:38:24;100211.97;;;26.84;68.47
63399;BME280;49533;-34.520;150.798;2023-01-28T10:40:53;100209.59;;;26.83;68.47
63399;BME280;49533;-34.520;150.798;2023-01-28T10:43:24;100222.75;;;26.82;68.58
63399;BME280;49533;-34.520;150.798;2023-01-28T10:46:10;100222.38;;;26.80;68.70
63399;BME280;49533;-34.520;150.798;2023-01-28T10:48:47;100229.97;;;26.80;68.91
63399;BME280;49533;-34.520;150.798;2023-01-28T10:51:34;100218.03;;;26.79;68.72
63399;BME280;49533;-34.520;150.798;2023-01-28T10:54:02;100221.63;;;26.76;68.91
63399;BME280;49533;-34.520;150.798;2023-01-28T10:56:32;100220.09;;;26.75;68.90
63399;BME280;49533;-34.520;150.798;2023-01-28T10:59:17;100217.28;;;26.75;68.57
63399;BME280;49533;-34.520;150.798;2023-01-28T11:01:51;100207.38;;;26.74;68.44
63399;BME280;49533;-34.520;150.798;2023-01-28T11:04:24;100207.38;;;26.74;68.59
63399;BME280;49533;-34.520;150.798;2023-01-28T11:06:59;100209.78;;;26.72;68.34
63399;BME280;49533;-34.520;150.798;2023-01-28T11:09:30;100213.78;;;26.71;68.47
63399;BME280;49533;-34.520;150.798;2023-01-28T11:12:09;100220.16;;;26.72;68.69
63399;BME280;49533;-34.520;150.798;2023-01-28T11:14:36;100228.56;;;26.68;68.34
63399;BME280;49533;-34.520;150.798;2023-01-28T11:17:04;100218.19;;;26.68;68.33
63399;BME280;49533;-34.520;150.798;2023-01-28T11:19:34;100217.84;;;26.66;68.65
63399;BME280;49533;-34.520;150.798;2023-01-28T11:22:02;100217.03;;;26.66;68.63
63399;BME280;49533;-34.520;150.798;2023-01-28T11:24:31;100223.06;;;26.64;68.55
63399;BME280;49533;-34.520;150.798;2023-01-28T11:27:11;100226.63;;;26.65;68.46
63399;BME280;49533;-34.520;150.798;2023-01-28T11:29:39;100227.03;;;26.63;68.22
63399;BME280;49533;-34.520;150.798;2023-01-28T11:32:20;100220.31;;;26.61;68.43
63399;BME280;49533;-34.520;150.798;2023-01-28T11:34:52;100227.13;;;26.60;68.94
63399;BME280;49533;-34.520;150.798;2023-01-28T11:37:24;100224.31;;;26.60;68.92
63399;BME280;49533;-34.520;150.798;2023-01-28T11:40:14;100231.13;;;26.59;68.52
63399;BME280;49533;-34.520;150.798;2023-01-28T11:42:46;100228.75;;;26.57;68.79
63399;BME280;49533;-34.520;150.798;2023-01-28T11:45:17;100222.41;;;26.57;68.67
63399;BME280;49533;-34.520;150.798;2023-01-28T11:48:10;100216.91;;;26.50;69.20
63399;BME280;49533;-34.520;150.798;2023-01-28T11:50:50;100221.31;;;26.23;71.01
63399;BME280;49533;-34.520;150.798;2023-01-28T11:53:33;100226.41;;;26.29;70.48
63399;BME280;49533;-34.520;150.798;2023-01-28T11:56:13;100231.44;;;26.37;70.14
63399;BME280;49533;-34.520;150.798;2023-01-28T11:59:05;100217.88;;;26.39;70.09
63399;BME280;49533;-34.520;150.798;2023-01-28T12:01:46;100220.28;;;26.37;69.69
63399;BME280;49533;-34.520;150.798;2023-01-28T12:04:24;100210.75;;;26.38;69.72
63399;BME280;49533;-34.520;150.798;2023-01-28T12:07:21;100220.66;;;26.39;69.75
63399;BME280;49533;-34.520;150.798;2023-01-28T12:10:22;100211.53;;;26.39;69.24
63399;BME280;49533;-34.520;150.798;2023-01-28T12:13:02;100217.88;;;26.39;69.66
63399;BME280;49533;-34.520;150.798;2023-01-28T12:21:54;100221.50;;;26.36;69.35
63399;BME280;49533;-34.520;150.798;2023-01-28T12:30:32;100219.19;;;26.31;69.61
63399;BME280;49533;-34.520;150.798;2023-01-28T12:33:30;100214.00;;;26.33;69.10
63399;BME280;49533;-34.520;150.798;2023-01-28T12:36:29;100225.97;;;26.30;69.34
63399;BME280;49533;-34.520;150.798;2023-01-28T12:39:11;100219.69;;;26.26;69.22
63399;BME280;49533;-34.520;150.798;2023-01-28T12:41:50;100212.09;;;26.27;69.41
63399;BME280;49533;-34.520;150.798;2023-01-28T12:44:25;100220.47;;;26.27;69.35
63399;BME280;49533;-34.520;150.798;2023-01-28T12:47:07;100215.31;;;26.25;69.25
63399;BME280;49533;-34.520;150.798;2023-01-28T12:49:45;100219.72;;;26.22;69.75
63399;BME280;49533;-34.520;150.798;2023-01-28T12:52:21;100223.31;;;26.23;69.61
63399;BME280;49533;-34.520;150.798;2023-01-28T12:55:03;100217.00;;;26.19;69.86
63399;BME280;49533;-34.520;150.798;2023-01-28T12:57:37;100219.78;;;26.19;69.43
63399;BME280;49533;-34.520;150.798;2023-01-28T13:05:52;100208.66;;;26.19;69.62
63399;BME280;49533;-34.520;150.798;2023-01-28T13:08:24;100202.34;;;26.15;69.37
63399;BME280;49533;-34.520;150.798;2023-01-28T13:10:54;100206.34;;;26.14;69.59
63399;BME280;49533;-34.520;150.798;2023-01-28T13:13:31;100210.31;;;26.13;69.63
63399;BME280;49533;-34.520;150.798;2023-01-28T13:16:00;100213.09;;;26.13;69.29